Time;durP1;ratioP1;P1;durP2;ratioP2;P2;SDS_P1;SDS_P2;PMS_P1;PMS_P2;Temp;Humidity;BMP_temperature;BMP_pressure;BME280_temperature;BME280_humidity;BME280_pressure;Samples;Min_cycle;Max_cycle;Signal;HPM_P1;HPM_P2
2021/10/25 00:00:50;;;;;;;20.33;11.57;;;4.60;99.90;;;;;;5031162;28;20200;-49
2021/10/25 00:03:17;;;;;;;11.82;9.13;;;4.50;99.90;;;;;;5040147;28;20219;-53
2021/10/25 00:05:44;;;;;;;13.30;8.65;;;4.60;99.90;;;;;;5030864;28;20402;-51
2021/10/25 00:08:13;;;;;;;9.68;6.50;;;4.60;99.90;;;;;;5024066;28;20207;-47
2021/10/25 00:10:41;;;;;;;10.48;8.32;;;4.50;99.90;;;;;;5032753;28;20234;-53
2021/10/25 00:13:09;;;;;;;11.30;6.65;;;4.50;99.90;;;;;;5033845;28;20228;-47
2021/10/25 00:15:37;;;;;;;11.60;7.88;;;4.40;99.90;;;;;;5033803;28;20221;-46
2021/10/25 00:18:05;;;;;;;14.48;7.18;;;4.40;99.90;;;;;;5035769;28;20611;-46
2021/10/25 00:20:34;;;;;;;10.15;7.00;;;4.30;99.90;;;;;;5034779;28;20214;-49
2021/10/25 00:23:03;;;;;;;10.85;8.15;;;4.40;99.90;;;;;;5035182;28;20442;-50
2021/10/25 00:25:32;;;;;;;13.85;8.27;;;4.50;99.90;;;;;;5030548;28;20220;-47
2021/10/25 00:27:59;;;;;;;10.88;7.43;;;4.40;99.90;;;;;;5031283;28;20516;-45
2021/10/25 00:30:26;;;;;;;14.18;7.60;;;4.40;99.90;;;;;;5032564;28;20206;-50
2021/10/25 00:32:53;;;;;;;11.27;8.18;;;4.40;99.90;;;;;;5027920;28;20230;-48
2021/10/25 00:35:21;;;;;;;9.60;7.18;;;4.40;99.90;;;;;;5020158;28;20239;-46
2021/10/25 00:37:48;;;;;;;9.85;8.07;;;4.50;99.90;;;;;;5030714;28;20241;-48
2021/10/25 00:40:15;;;;;;;12.25;6.78;;;4.50;99.90;;;;;;5032564;28;20205;-45
2021/10/25 00:42:43;;;;;;;12.77;7.88;;;4.60;99.90;;;;;;5037583;28;20254;-46
2021/10/25 00:45:10;;;;;;;14.88;7.97;;;4.70;99.90;;;;;;5035311;28;20555;-52
2021/10/25 00:47:37;;;;;;;11.90;7.32;;;4.60;99.90;;;;;;5039485;28;20208;-49
2021/10/25 00:50:05;;;;;;;8.75;6.80;;;4.60;99.90;;;;;;5033017;28;20203;-49
2021/10/25 00:52:33;;;;;;;10.95;8.48;;;4.60;99.90;;;;;;5031889;28;20226;-46
2021/10/25 00:55:00;;;;;;;12.00;7.90;;;4.40;99.90;;;;;;5024993;28;20244;-48
2021/10/25 00:57:27;;;;;;;11.90;8.45;;;4.30;99.90;;;;;;5022522;28;20199;-47
2021/10/25 00:59:55;;;;;;;12.70;8.05;;;4.30;99.90;;;;;;5029386;28;20210;-43
2021/10/25 01:02:22;;;;;;;12.02;8.10;;;4.30;99.90;;;;;;5031957;28;20323;-47
2021/10/25 01:04:50;;;;;;;17.33;8.60;;;4.20;99.90;;;;;;5034193;28;20203;-46
2021/10/25 01:07:17;;;;;;;12.02;9.13;;;4.20;99.90;;;;;;5030933;28;20206;-47
2021/10/25 01:09:44;;;;;;;15.00;7.72;;;4.00;99.90;;;;;;5032727;28;20211;-48
2021/10/25 01:12:12;;;;;;;13.18;9.18;;;3.90;99.90;;;;;;5032338;28;20223;-49
2021/10/25 01:14:39;;;;;;;14.30;9.20;;;3.90;99.90;;;;;;5025467;28;20260;-49
2021/10/25 01:17:06;;;;;;;18.58;9.93;;;3.90;99.90;;;;;;5035698;28;20202;-48
2021/10/25 01:19:34;;;;;;;13.50;8.73;;;3.90;99.90;;;;;;5030234;28;20203;-47
2021/10/25 01:22:01;;;;;;;11.95;9.10;;;3.70;99.90;;;;;;5035475;28;20264;-48
2021/10/25 01:24:29;;;;;;;11.70;9.38;;;3.70;99.90;;;;;;5032689;28;20214;-49
2021/10/25 01:26:56;;;;;;;15.48;9.93;;;3.80;99.90;;;;;;5027186;28;20224;-49
2021/10/25 01:29:24;;;;;;;17.25;8.60;;;3.70;99.90;;;;;;5029882;28;20515;-48
2021/10/25 01:31:51;;;;;;;11.55;8.35;;;3.70;99.90;;;;;;5030046;28;20239;-47
2021/10/25 01:34:18;;;;;;;13.70;10.00;;;3.70;99.90;;;;;;5023665;28;20213;-49
2021/10/25 01:36:45;;;;;;;16.77;9.23;;;3.70;99.90;;;;;;5033638;28;20356;-47
2021/10/25 01:39:12;;;;;;;9.52;8.30;;;3.60;99.90;;;;;;5023909;28;20214;-50
2021/10/25 01:44:09;;;;;;;15.75;9.15;;;3.50;99.90;;;;;;5016344;28;20201;-50
2021/10/25 01:46:37;;;;;;;16.48;11.73;;;3.50;99.90;;;;;;5018207;28;20523;-51
2021/10/25 01:49:05;;;;;;;23.17;9.73;;;3.30;99.90;;;;;;5014218;28;20202;-54
2021/10/25 01:51:33;;;;;;;16.98;10.90;;;3.40;99.90;;;;;;5019983;28;20205;-54
2021/10/25 01:54:01;;;;;;;13.68;9.35;;;3.30;99.90;;;;;;5016715;28;20291;-52
2021/10/25 01:56:29;;;;;;;17.38;9.15;;;3.40;99.90;;;;;;5013376;28;20229;-54
2021/10/25 01:58:56;;;;;;;15.63;9.00;;;3.30;99.90;;;;;;5018276;28;20199;-53
2021/10/25 02:01:24;;;;;;;15.98;10.23;;;3.30;99.90;;;;;;5020582;28;20210;-53
2021/10/25 02:03:52;;;;;;;17.50;12.63;;;3.30;99.90;;;;;;5015389;28;20218;-54
2021/10/25 02:06:20;;;;;;;12.82;8.52;;;3.30;99.90;;;;;;5011490;28;20477;-52
2021/10/25 02:08:47;;;;;;;12.95;8.13;;;3.20;99.90;;;;;;5015272;28;20444;-52
2021/10/25 02:11:16;;;;;;;15.82;9.05;;;3.20;99.90;;;;;;5018967;28;20208;-51
2021/10/25 02:13:43;;;;;;;14.70;8.45;;;3.30;99.90;;;;;;5016744;28;20613;-49
2021/10/25 02:16:11;;;;;;;15.15;8.23;;;3.50;99.90;;;;;;5012602;28;20277;-48
2021/10/25 02:18:39;;;;;;;14.05;8.20;;;3.40;99.90;;;;;;5018329;28;20204;-52
2021/10/25 02:21:08;;;;;;;16.67;9.38;;;3.50;99.90;;;;;;5012884;28;20506;-52
2021/10/25 02:23:35;;;;;;;19.35;8.93;;;3.60;99.90;;;;;;5019831;28;20221;-51
2021/10/25 02:26:04;;;;;;;16.20;8.38;;;3.50;99.90;;;;;;5019193;28;20202;-53
2021/10/25 02:28:33;;;;;;;13.43;9.15;;;3.50;99.90;;;;;;5012448;28;20217;-51
2021/10/25 02:31:00;;;;;;;15.30;10.35;;;3.30;99.90;;;;;;5026677;28;20206;-51
2021/10/25 02:33:28;;;;;;;19.10;10.52;;;3.30;99.90;;;;;;5013779;28;20224;-50
2021/10/25 02:35:55;;;;;;;15.63;9.40;;;3.30;99.90;;;;;;5019849;28;20225;-48
2021/10/25 02:38:22;;;;;;;19.73;8.88;;;3.30;99.90;;;;;;5022867;28;20522;-51
2021/10/25 02:40:50;;;;;;;16.70;10.30;;;3.30;99.90;;;;;;5017123;28;20543;-51
2021/10/25 02:43:18;;;;;;;17.10;10.73;;;3.20;99.90;;;;;;5023331;28;20264;-50
2021/10/25 02:45:45;;;;;;;17.70;10.95;;;3.20;99.90;;;;;;5023177;28;20264;-50
2021/10/25 02:48:12;;;;;;;15.48;10.52;;;3.30;99.90;;;;;;5022882;28;20237;-47
2021/10/25 02:50:39;;;;;;;14.68;9.50;;;3.30;99.90;;;;;;5021845;28;20251;-51
2021/10/25 02:53:09;;;;;;;18.35;9.10;;;3.30;99.90;;;;;;5015355;28;20271;-49
2021/10/25 02:55:36;;;;;;;13.70;8.18;;;3.40;99.90;;;;;;5022500;28;20452;-47
2021/10/25 02:58:04;;;;;;;12.85;9.20;;;3.40;99.90;;;;;;5019949;28;20237;-50
2021/10/25 03:00:31;;;;;;;14.85;9.60;;;3.40;99.90;;;;;;5022866;28;20202;-50
2021/10/25 03:02:58;;;;;;;21.65;8.80;;;3.40;99.90;;;;;;5015740;28;20241;-48
2021/10/25 03:05:26;;;;;;;14.75;8.15;;;3.40;99.90;;;;;;5016895;28;20248;-51
2021/10/25 03:07:53;;;;;;;12.57;8.48;;;3.30;99.90;;;;;;5021913;28;20252;-49
2021/10/25 03:10:20;;;;;;;10.93;7.93;;;3.20;99.90;;;;;;5016974;28;20206;-49
2021/10/25 03:12:48;;;;;;;17.95;8.70;;;3.30;99.90;;;;;;5018900;28;20233;-50
2021/10/25 03:15:16;;;;;;;14.48;7.82;;;3.30;99.90;;;;;;5024886;28;20428;-48
2021/10/25 03:17:44;;;;;;;17.48;10.30;;;3.20;99.90;;;;;;5023043;28;20202;-50
2021/10/25 03:20:12;;;;;;;18.17;9.07;;;3.10;99.90;;;;;;5024285;28;20203;-50
2021/10/25 03:22:40;;;;;;;16.42;9.50;;;3.20;99.90;;;;;;5023083;28;20233;-49
2021/10/25 03:25:09;;;;;;;20.00;8.40;;;3.10;99.90;;;;;;5031157;28;20212;-50
2021/10/25 03:27:37;;;;;;;16.00;8.65;;;3.10;99.90;;;;;;5028886;28;20272;-48
2021/10/25 03:30:05;;;;;;;11.10;8.50;;;3.10;99.90;;;;;;5021732;28;20202;-48
2021/10/25 03:32:33;;;;;;;15.95;10.38;;;3.20;99.90;;;;;;5021125;28;20280;-49
2021/10/25 03:35:00;;;;;;;13.32;8.48;;;3.10;99.90;;;;;;5024193;28;20197;-49
2021/10/25 03:37:28;;;;;;;18.50;10.68;;;3.00;99.90;;;;;;5018632;28;20228;-50
2021/10/25 03:39:55;;;;;;;15.07;9.43;;;3.00;99.90;;;;;;5023794;28;20202;-50
2021/10/25 03:42:28;;;;;;;17.80;11.10;;;3.00;99.90;;;;;;5024667;28;20232;-52
2021/10/25 03:45:08;;;;;;;14.45;9.02;;;2.90;99.90;;;;;;5024771;28;20263;-49
2021/10/25 03:47:59;;;;;;;18.27;9.45;;;2.80;99.90;;;;;;5023777;28;20239;-54
2021/10/25 03:50:31;;;;;;;15.43;11.25;;;2.70;99.90;;;;;;5026346;28;20209;-49
2021/10/25 03:55:44;;;;;;;13.80;9.73;;;2.50;99.90;;;;;;5021449;28;20212;-51
2021/10/25 04:30:34;;;;;;;17.08;9.15;;;2.30;99.90;;;;;;5020189;28;20223;-50
2021/10/25 04:33:02;;;;;;;11.05;8.82;;;2.20;99.90;;;;;;5014542;28;20421;-50
2021/10/25 04:35:29;;;;;;;16.55;9.55;;;2.30;99.90;;;;;;5019904;28;20447;-52
2021/10/25 04:37:56;;;;;;;16.13;8.85;;;2.30;99.90;;;;;;5007611;28;20237;-49
2021/10/25 04:40:25;;;;;;;13.68;8.90;;;2.30;99.90;;;;;;5012804;28;20251;-52
2021/10/25 04:42:52;;;;;;;18.13;9.98;;;2.30;99.90;;;;;;5014277;28;20261;-48
2021/10/25 04:45:19;;;;;;;12.32;9.25;;;2.30;99.90;;;;;;5012774;28;20201;-52
2021/10/25 04:47:46;;;;;;;11.23;10.10;;;2.30;99.90;;;;;;5013345;28;20287;-50
2021/10/25 04:50:14;;;;;;;13.50;9.50;;;2.30;99.90;;;;;;5019675;28;20212;-48
2021/10/25 04:52:41;;;;;;;11.85;9.32;;;2.30;99.90;;;;;;5013026;28;20221;-50
2021/10/25 04:55:08;;;;;;;15.88;8.82;;;2.30;99.90;;;;;;5014511;28;20209;-50
2021/10/25 04:57:35;;;;;;;11.90;9.80;;;2.30;99.90;;;;;;5011102;28;20229;-51
2021/10/25 05:00:03;;;;;;;15.57;9.55;;;2.40;99.90;;;;;;5013485;28;20264;-51
2021/10/25 05:02:31;;;;;;;9.65;8.55;;;2.40;99.90;;;;;;5012056;28;20556;-50
2021/10/25 05:05:01;;;;;;;12.73;8.52;;;2.50;99.90;;;;;;5012209;28;20205;-51
2021/10/25 05:07:28;;;;;;;16.75;9.80;;;2.50;99.90;;;;;;5017287;28;20235;-49
2021/10/25 05:09:56;;;;;;;12.70;8.65;;;2.60;99.90;;;;;;5019208;28;20205;-50
2021/10/25 05:12:24;;;;;;;15.65;10.15;;;2.50;99.90;;;;;;5013547;28;20255;-49
2021/10/25 05:14:52;;;;;;;14.82;10.20;;;2.50;99.90;;;;;;5011526;28;20197;-49
2021/10/25 05:17:19;;;;;;;12.35;9.98;;;2.50;99.90;;;;;;5008824;28;20220;-49
2021/10/25 05:19:46;;;;;;;11.98;9.00;;;2.50;99.90;;;;;;5017766;28;20469;-49
2021/10/25 05:22:14;;;;;;;12.13;8.15;;;2.50;99.90;;;;;;5016319;28;21006;-49
2021/10/25 05:24:42;;;;;;;19.10;10.30;;;2.50;99.90;;;;;;5011850;28;20393;-49
2021/10/25 05:27:11;;;;;;;14.95;8.43;;;2.50;99.90;;;;;;5017130;28;20224;-50
2021/10/25 05:29:41;;;;;;;16.10;9.48;;;2.60;99.90;;;;;;5008222;28;20583;-49
2021/10/25 05:32:09;;;;;;;10.05;8.25;;;2.60;99.90;;;;;;5008813;28;20292;-49
2021/10/25 05:34:37;;;;;;;12.90;8.60;;;2.60;99.90;;;;;;5016316;28;20204;-50
2021/10/25 05:37:04;;;;;;;15.27;10.20;;;2.60;99.90;;;;;;5017286;28;20286;-49
2021/10/25 05:39:32;;;;;;;17.40;9.40;;;2.70;99.90;;;;;;5012683;28;20215;-52
2021/10/25 05:42:02;;;;;;;20.77;9.43;;;2.90;99.90;;;;;;5019214;28;20217;-52
2021/10/25 05:44:30;;;;;;;14.98;9.32;;;2.90;99.90;;;;;;5019665;28;20209;-49
2021/10/25 05:46:59;;;;;;;9.32;7.88;;;2.90;99.90;;;;;;5018982;28;20268;-51
2021/10/25 05:49:26;;;;;;;11.38;9.50;;;2.70;99.90;;;;;;5012098;28;20275;-49
2021/10/25 05:51:54;;;;;;;18.48;8.80;;;2.60;99.90;;;;;;5015206;28;20217;-49
2021/10/25 05:54:22;;;;;;;11.48;7.05;;;2.50;99.90;;;;;;5013040;28;20203;-51
2021/10/25 05:56:49;;;;;;;10.07;6.55;;;2.50;99.90;;;;;;5016452;28;20231;-51
2021/10/25 05:59:16;;;;;;;9.52;6.20;;;2.60;99.90;;;;;;5013555;28;20276;-51
2021/10/25 06:01:55;;;;;;;11.32;5.80;;;2.80;99.90;;;;;;5011186;28;20200;-50
2021/10/25 06:04:24;;;;;;;7.22;6.50;;;3.00;99.90;;;;;;5013651;28;20201;-51
2021/10/25 06:06:52;;;;;;;6.47;5.55;;;3.20;99.90;;;;;;5028776;28;20231;-51
2021/10/25 06:09:21;;;;;;;7.82;4.95;;;3.10;99.90;;;;;;5037660;28;20561;-50
2021/10/25 06:11:48;;;;;;;12.00;5.40;;;3.40;99.90;;;;;;5020225;28;20452;-53
2021/10/25 06:14:25;;;;;;;9.43;6.40;;;3.30;99.90;;;;;;5025719;28;20247;-53
2021/10/25 06:16:58;;;;;;;9.10;6.80;;;3.50;99.90;;;;;;5025091;28;20474;-51
2021/10/25 06:19:25;;;;;;;11.23;6.22;;;3.60;99.90;;;;;;5018854;28;20202;-52
2021/10/25 06:21:53;;;;;;;6.00;4.90;;;3.60;99.90;;;;;;5021679;28;20202;-52
2021/10/25 06:24:20;;;;;;;11.80;6.43;;;3.80;99.90;;;;;;5019148;28;20205;-52
2021/10/25 06:26:48;;;;;;;8.38;5.65;;;3.90;99.90;;;;;;5026083;28;20486;-49
2021/10/25 06:29:15;;;;;;;6.63;5.95;;;4.20;99.90;;;;;;5024629;28;20234;-50
2021/10/25 06:31:42;;;;;;;9.65;7.22;;;4.30;99.90;;;;;;5025652;28;20260;-53
2021/10/25 06:34:19;;;;;;;20.40;5.90;;;4.50;99.90;;;;;;5025127;28;20222;-50
2021/10/25 06:36:48;;;;;;;5.75;5.15;;;4.70;99.90;;;;;;5023988;28;20446;-50
2021/10/25 06:39:39;;;;;;;12.40;5.75;;;4.90;99.90;;;;;;5020289;28;20213;-50
2021/10/25 06:42:07;;;;;;;8.20;6.75;;;4.80;99.90;;;;;;5010240;28;20227;-50
2021/10/25 06:44:57;;;;;;;9.05;4.55;;;4.80;99.90;;;;;;5016405;28;20252;-51
2021/10/25 06:47:23;;;;;;;5.80;4.55;;;5.00;99.90;;;;;;5014395;28;20513;-50
2021/10/25 06:49:50;;;;;;;7.57;4.50;;;5.40;99.90;;;;;;5017802;28;20446;-50
2021/10/25 06:52:18;;;;;;;13.52;3.90;;;5.50;99.90;;;;;;5012990;28;20222;-51
2021/10/25 06:54:46;;;;;;;4.82;2.60;;;5.80;99.90;;;;;;5010491;28;20520;-51
2021/10/25 06:57:13;;;;;;;3.45;2.50;;;6.20;99.90;;;;;;5010629;28;20340;-52
2021/10/25 06:59:40;;;;;;;3.03;1.52;;;7.00;99.90;;;;;;5010668;28;20263;-52
2021/10/25 07:02:07;;;;;;;5.55;2.00;;;7.60;99.90;;;;;;5020353;28;20257;-53
2021/10/25 07:04:35;;;;;;;2.75;2.08;;;8.00;99.90;;;;;;5023510;28;20275;-51
2021/10/25 07:07:02;;;;;;;2.47;2.05;;;8.50;99.90;;;;;;5026314;28;20424;-51
2021/10/25 07:09:30;;;;;;;4.90;1.80;;;8.90;99.90;;;;;;5031804;28;20215;-49
2021/10/25 07:11:57;;;;;;;5.82;1.92;;;9.40;99.90;;;;;;5021484;28;20248;-49
2021/10/25 07:14:29;;;;;;;3.78;1.75;;;9.70;99.90;;;;;;5023631;28;20283;-52
2021/10/25 08:06:29;;;;;;;3.30;2.50;;;14.70;92.30;;;;;;5040791;28;20196;-51
2021/10/25 08:11:38;;;;;;;4.97;2.80;;;15.20;90.90;;;;;;5040596;28;20236;-50
2021/10/25 08:14:15;;;;;;;7.53;3.03;;;14.90;92.00;;;;;;5020858;28;20218;-48
2021/10/25 08:16:47;;;;;;;3.20;2.87;;;15.50;91.50;;;;;;5026633;28;20237;-48
2021/10/25 08:22:05;;;;;;;3.40;1.93;;;16.50;89.10;;;;;;5040468;28;20497;-52
2021/10/25 08:24:36;;;;;;;8.33;2.87;;;16.20;89.10;;;;;;5022397;28;20437;-48
2021/10/25 08:27:05;;;;;;;2.60;2.27;;;16.70;90.30;;;;;;5025070;28;20487;-43
2021/10/25 08:29:33;;;;;;;3.50;2.80;;;16.90;87.50;;;;;;5027403;28;20444;-46
2021/10/25 08:39:58;;;;;;;5.03;2.40;;;16.10;88.70;;;;;;5029199;28;20493;-54
2021/10/25 08:42:33;;;;;;;4.43;2.40;;;15.70;89.90;;;;;;5029453;28;20414;-47
2021/10/25 08:45:08;;;;;;;7.37;2.47;;;15.60;90.40;;;;;;5028136;28;20803;-52
2021/10/25 08:47:42;;;;;;;2.80;2.53;;;16.40;89.10;;;;;;5040227;28;20417;-49
2021/10/25 08:50:18;;;;;;;2.90;2.50;;;16.40;86.80;;;;;;5026397;28;20771;-49
2021/10/25 08:52:46;;;;;;;3.60;2.30;;;17.10;83.70;;;;;;5039991;28;20475;-51
2021/10/25 08:55:18;;;;;;;2.27;2.07;;;17.00;83.60;;;;;;5023107;28;20722;-49
2021/10/25 08:57:48;;;;;;;2.47;2.30;;;16.70;83.20;;;;;;5032827;28;20502;-48
2021/10/25 09:00:20;;;;;;;2.10;1.95;;;15.70;85.20;;;;;;5033123;28;20433;-49
2021/10/25 09:02:58;;;;;;;4.05;1.80;;;14.80;87.70;;;;;;5040268;28;20243;-48
2021/10/25 09:05:27;;;;;;;2.55;2.20;;;14.20;90.00;;;;;;5040576;28;20227;-49
2021/10/25 09:08:05;;;;;;;2.78;2.55;;;14.00;90.80;;;;;;5029051;28;20208;-52
2021/10/25 09:10:39;;;;;;;2.42;2.20;;;13.80;90.60;;;;;;5027848;28;20208;-49
2021/10/25 09:13:19;;;;;;;2.38;2.13;;;13.90;90.60;;;;;;5039588;28;20255;-46
2021/10/25 09:15:58;;;;;;;2.22;1.67;;;14.10;90.50;;;;;;5025786;28;20458;-48
2021/10/25 09:18:28;;;;;;;2.25;1.83;;;14.00;90.90;;;;;;5039088;28;20242;-52
2021/10/25 09:21:05;;;;;;;2.08;1.60;;;13.70;90.90;;;;;;5027720;28;20511;-46
2021/10/25 09:23:49;;;;;;;4.57;1.85;;;13.60;90.30;;;;;;5033964;28;20496;-47
2021/10/25 09:26:28;;;;;;;1.90;1.70;;;13.70;90.50;;;;;;5027122;28;20202;-51
2021/10/25 09:29:00;;;;;;;1.60;1.50;;;13.60;88.50;;;;;;5039257;28;20387;-48
2021/10/25 09:31:31;;;;;;;3.25;2.38;;;13.50;88.60;;;;;;5032515;28;20213;-45
2021/10/25 09:34:08;;;;;;;2.38;1.60;;;13.50;89.80;;;;;;5034469;28;20255;-52
2021/10/25 09:36:38;;;;;;;2.10;1.73;;;13.50;90.60;;;;;;5027658;28;20514;-53
2021/10/25 09:39:17;;;;;;;2.28;1.83;;;13.40;89.80;;;;;;5035762;28;20208;-50
2021/10/25 09:42:12;;;;;;;3.05;1.95;;;13.40;89.80;;;;;;5025616;28;20199;-49
2021/10/25 09:50:19;;;;;;;5.38;1.95;;;13.40;89.90;;;;;;5026679;28;20204;-50
2021/10/25 09:52:47;;;;;;;7.28;2.83;;;13.40;90.30;;;;;;5031796;28;20228;-48
2021/10/25 09:55:17;;;;;;;2.65;1.70;;;13.40;90.00;;;;;;5024876;28;20258;-49
2021/10/25 10:00:16;;;;;;;4.53;3.25;;;13.40;90.90;;;;;;5038773;28;20199;-48
2021/10/25 10:02:45;;;;;;;3.50;3.10;;;13.40;90.30;;;;;;5027410;28;20267;-47
2021/10/25 10:05:14;;;;;;;2.88;2.58;;;13.40;90.40;;;;;;5036714;28;20407;-46
2021/10/25 10:07:43;;;;;;;2.35;1.73;;;13.60;90.00;;;;;;5025868;28;20212;-52
2021/10/25 10:10:13;;;;;;;3.00;2.03;;;13.60;90.00;;;;;;5033569;28;20208;-51
2021/10/25 10:12:43;;;;;;;3.42;2.17;;;13.60;90.10;;;;;;5031484;28;20438;-49
2021/10/25 10:15:13;;;;;;;3.72;2.72;;;13.70;90.20;;;;;;5028040;28;20209;-45
2021/10/25 10:17:46;;;;;;;1.58;1.48;;;13.80;89.80;;;;;;5038779;28;20309;-45
2021/10/25 10:20:20;;;;;;;2.70;1.80;;;13.80;90.00;;;;;;5025248;28;20208;-47
2021/10/25 10:22:50;;;;;;;2.80;1.75;;;13.80;89.40;;;;;;5025729;28;20507;-53
2021/10/25 10:25:46;;;;;;;1.65;1.55;;;13.80;90.60;;;;;;5038934;28;20525;-51
2021/10/25 10:28:15;;;;;;;3.83;2.75;;;13.70;90.20;;;;;;5019645;28;20201;-50
2021/10/25 10:31:05;;;;;;;2.10;1.95;;;13.90;89.90;;;;;;5021035;28;20211;-50
2021/10/25 10:33:45;;;;;;;2.97;1.98;;;14.00;90.10;;;;;;5036301;28;20550;-51
2021/10/25 10:36:16;;;;;;;2.38;1.60;;;14.10;90.10;;;;;;5037881;28;20203;-49
2021/10/25 10:39:00;;;;;;;2.47;2.00;;;14.10;88.90;;;;;;5038839;28;20220;-47
2021/10/25 10:41:40;;;;;;;3.50;1.85;;;14.10;89.40;;;;;;5037915;28;20259;-54
2021/10/25 10:44:08;;;;;;;5.55;2.65;;;14.00;88.80;;;;;;5038849;28;20270;-48
2021/10/25 10:46:52;;;;;;;2.30;1.83;;;14.00;88.60;;;;;;5029411;28;20436;-48
2021/10/25 10:49:33;;;;;;;2.90;1.75;;;14.00;88.00;;;;;;5020081;28;20464;-51
2021/10/25 11:00:33;;;;;;;4.90;2.50;;;14.00;89.00;;;;;;5034888;28;20246;-50
2021/10/25 11:03:22;;;;;;;3.13;2.05;;;14.00;89.60;;;;;;5041446;28;20247;-47
2021/10/25 11:06:01;;;;;;;4.22;2.38;;;13.90;89.30;;;;;;5030093;28;20212;-47
2021/10/25 11:08:37;;;;;;;1.73;1.63;;;14.10;89.20;;;;;;5030178;28;20257;-50
2021/10/25 11:11:16;;;;;;;5.10;2.03;;;14.00;89.70;;;;;;5040600;28;20265;-51
2021/10/25 11:13:47;;;;;;;2.97;1.70;;;14.10;89.10;;;;;;5025419;28;20263;-50
2021/10/25 11:16:28;;;;;;;2.50;1.90;;;14.10;89.50;;;;;;5031490;28;20474;-50
2021/10/25 11:18:58;;;;;;;3.95;2.17;;;14.00;89.90;;;;;;5028140;28;20230;-53
2021/10/25 11:21:30;;;;;;;3.42;1.58;;;14.00;90.10;;;;;;5041864;28;20200;-45
2021/10/25 11:24:02;;;;;;;6.15;2.58;;;14.00;88.90;;;;;;5041316;28;20266;-53
2021/10/25 11:26:42;;;;;;;3.95;2.75;;;13.90;89.20;;;;;;5042032;28;20201;-50
2021/10/25 11:29:20;;;;;;;4.47;3.22;;;13.80;90.10;;;;;;5039944;28;20207;-51
2021/10/25 11:31:59;;;;;;;3.70;2.38;;;13.90;90.60;;;;;;5032963;28;20416;-49
2021/10/25 11:34:28;;;;;;;4.15;2.20;;;14.00;90.00;;;;;;5041795;28;20422;-47
2021/10/25 11:37:07;;;;;;;3.30;2.13;;;14.00;90.10;;;;;;5041516;28;20204;-52
2021/10/25 11:39:46;;;;;;;3.67;2.03;;;14.00;90.00;;;;;;5041189;28;20238;-51
2021/10/25 11:42:20;;;;;;;7.53;2.13;;;14.10;88.90;;;;;;5030503;28;20241;-49
2021/10/25 11:44:56;;;;;;;3.10;2.10;;;14.10;89.30;;;;;;5038825;28;20215;-49
2021/10/25 11:47:26;;;;;;;2.00;1.85;;;14.00;88.80;;;;;;5040372;28;20200;-49
2021/10/25 11:49:58;;;;;;;1.40;1.30;;;14.00;88.80;;;;;;5040984;28;20556;-49
2021/10/25 11:52:25;;;;;;;5.03;1.70;;;14.10;88.60;;;;;;5021280;28;20201;-49
2021/10/25 11:54:54;;;;;;;2.00;1.70;;;14.10;89.10;;;;;;5037651;28;20200;-45
2021/10/25 11:57:22;;;;;;;3.67;2.17;;;14.00;89.90;;;;;;5028926;28;20254;-46
2021/10/25 11:59:59;;;;;;;2.83;2.28;;;14.00;90.30;;;;;;5034279;28;20236;-44
2021/10/25 12:02:27;;;;;;;1.60;1.50;;;14.10;89.70;;;;;;5041239;28;20200;-55
2021/10/25 12:04:54;;;;;;;5.13;2.15;;;14.10;89.70;;;;;;5040011;28;20595;-46
2021/10/25 12:07:23;;;;;;;2.90;1.90;;;14.10;88.90;;;;;;5040063;28;20364;-45
2021/10/25 12:10:05;;;;;;;4.22;2.53;;;14.10;88.60;;;;;;5028025;28;20208;-51
2021/10/25 12:12:35;;;;;;;3.33;2.08;;;14.00;89.90;;;;;;5027199;28;20250;-50
2021/10/25 12:15:03;;;;;;;2.63;2.25;;;14.10;89.30;;;;;;5040340;28;20507;-49
2021/10/25 12:17:34;;;;;;;2.97;2.45;;;14.20;89.60;;;;;;5032061;28;20203;-50
2021/10/25 12:20:04;;;;;;;3.55;1.75;;;14.20;87.90;;;;;;5039978;28;20199;-49
2021/10/25 12:22:31;;;;;;;2.92;1.80;;;14.20;87.90;;;;;;5040097;28;20265;-50
2021/10/25 12:24:59;;;;;;;2.85;2.45;;;14.30;88.10;;;;;;5039977;28;20234;-53
2021/10/25 12:27:36;;;;;;;2.78;2.22;;;14.40;88.10;;;;;;5039918;28;20250;-52
2021/10/25 12:30:05;;;;;;;1.98;1.85;;;14.40;87.80;;;;;;5039675;28;20207;-53
2021/10/25 12:32:39;;;;;;;4.45;3.10;;;14.50;87.30;;;;;;5039809;28;20197;-46
2021/10/25 12:35:07;;;;;;;3.78;1.90;;;14.60;87.70;;;;;;5040167;28;20254;-50
2021/10/25 12:37:34;;;;;;;3.45;1.80;;;14.60;87.80;;;;;;5039482;28;20204;-47
2021/10/25 12:40:16;;;;;;;2.33;2.13;;;14.60;87.30;;;;;;5039677;28;20202;-48
2021/10/25 12:42:45;;;;;;;18.55;3.28;;;14.60;87.10;;;;;;5034099;28;20241;-54
2021/10/25 12:45:20;;;;;;;3.75;2.28;;;14.60;87.60;;;;;;5039792;28;20500;-56
2021/10/25 12:47:52;;;;;;;2.85;1.85;;;14.60;88.00;;;;;;5038416;28;20221;-50
2021/10/25 12:50:19;;;;;;;2.65;2.15;;;14.60;86.80;;;;;;5020506;28;20223;-52
2021/10/25 12:52:54;;;;;;;4.32;2.33;;;14.60;88.00;;;;;;5020598;28;20228;-54
2021/10/25 12:55:21;;;;;;;3.50;2.17;;;14.50;88.10;;;;;;5023281;28;20219;-49
2021/10/25 12:57:53;;;;;;;2.58;2.38;;;14.70;87.60;;;;;;5032721;28;20227;-48
2021/10/25 13:00:20;;;;;;;3.45;2.70;;;14.80;88.30;;;;;;5026007;28;20208;-49
2021/10/25 13:02:52;;;;;;;2.53;2.33;;;14.80;87.80;;;;;;5039532;28;20231;-52
2021/10/25 13:05:23;;;;;;;5.03;2.85;;;14.80;87.70;;;;;;5039328;28;20229;-53
2021/10/25 13:07:56;;;;;;;8.30;2.60;;;14.80;87.80;;;;;;5031115;28;20263;-47
2021/10/25 13:10:32;;;;;;;1.83;1.73;;;14.80;88.30;;;;;;5021792;28;20208;-49
2021/10/25 13:13:02;;;;;;;2.67;2.00;;;14.70;88.30;;;;;;5038981;28;20222;-51
2021/10/25 13:15:30;;;;;;;2.13;2.03;;;14.60;88.10;;;;;;5036502;28;20211;-53
2021/10/25 13:18:00;;;;;;;3.05;2.75;;;14.50;89.80;;;;;;5038920;28;20219;-52
2021/10/25 13:20:30;;;;;;;4.22;2.60;;;14.40;89.60;;;;;;5038497;28;20212;-49
2021/10/25 13:23:16;;;;;;;4.40;2.33;;;14.40;89.60;;;;;;5030669;28;20262;-48
2021/10/25 13:25:44;;;;;;;2.85;2.60;;;14.30;90.30;;;;;;5038432;28;20203;-51
2021/10/25 13:28:13;;;;;;;3.15;2.20;;;14.20;90.40;;;;;;5036477;28;20263;-46
2021/10/25 13:30:40;;;;;;;3.25;2.05;;;14.30;90.80;;;;;;5034040;28;20251;-45
2021/10/25 13:33:08;;;;;;;2.17;1.98;;;14.20;90.50;;;;;;5038606;28;20220;-52
2021/10/25 13:35:36;;;;;;;2.65;2.45;;;14.20;90.80;;;;;;5038341;28;20279;-50
2021/10/25 13:38:05;;;;;;;3.85;2.90;;;14.20;90.50;;;;;;5035118;28;20251;-52
2021/10/25 13:40:33;;;;;;;3.08;2.00;;;14.10;90.60;;;;;;5019889;28;20428;-49
2021/10/25 13:43:01;;;;;;;4.13;2.00;;;14.10;90.40;;;;;;5055304;23;20307;-48
2021/10/25 13:45:30;;;;;;;3.63;3.28;;;14.10;90.60;;;;;;5016825;28;20299;-51
2021/10/25 13:47:57;;;;;;;2.17;2.05;;;14.20;90.90;;;;;;5012540;28;20260;-51
2021/10/25 13:50:25;;;;;;;5.57;3.13;;;14.20;91.20;;;;;;5019354;28;20520;-50
2021/10/25 13:52:52;;;;;;;2.95;2.67;;;14.20;91.20;;;;;;5019189;28;20511;-51
2021/10/25 13:55:20;;;;;;;3.33;2.22;;;14.10;91.30;;;;;;5034682;28;20288;-54
2021/10/25 13:57:49;;;;;;;2.03;1.88;;;14.00;91.20;;;;;;5033060;28;20277;-55
2021/10/25 14:00:17;;;;;;;3.28;2.65;;;14.00;91.50;;;;;;5032270;28;20203;-52
2021/10/25 14:02:45;;;;;;;3.00;2.67;;;13.90;91.60;;;;;;5036364;28;20212;-51
2021/10/25 14:05:18;;;;;;;7.53;3.00;;;13.90;91.60;;;;;;5033708;28;20254;-56
2021/10/25 14:07:46;;;;;;;3.45;3.10;;;13.90;91.80;;;;;;5033078;28;20249;-51
2021/10/25 14:10:21;;;;;;;3.28;3.08;;;13.90;91.80;;;;;;5037778;28;20204;-52
2021/10/25 14:12:49;;;;;;;3.53;2.50;;;13.80;91.90;;;;;;5037413;28;20219;-52
2021/10/25 14:15:44;;;;;;;2.95;2.40;;;13.70;92.20;;;;;;5034277;28;20673;-51
2021/10/25 14:18:13;;;;;;;3.60;2.28;;;13.60;92.20;;;;;;5035772;28;20215;-49
2021/10/25 14:20:42;;;;;;;4.57;2.72;;;13.60;92.30;;;;;;5033518;28;20269;-51
2021/10/25 14:23:10;;;;;;;3.85;3.30;;;13.50;92.50;;;;;;5035477;28;20266;-53
2021/10/25 14:25:38;;;;;;;4.38;3.28;;;13.40;92.60;;;;;;5030257;28;20204;-51
2021/10/25 14:28:06;;;;;;;7.47;5.65;;;13.30;92.70;;;;;;5036895;28;20196;-53
2021/10/25 14:30:34;;;;;;;6.95;4.18;;;13.20;93.20;;;;;;5036492;28;20239;-50
2021/10/25 14:33:02;;;;;;;2.88;2.25;;;13.10;93.30;;;;;;5030357;28;20199;-50
2021/10/25 14:35:30;;;;;;;5.45;2.80;;;13.20;93.10;;;;;;5044293;28;20219;-54
2021/10/25 14:37:58;;;;;;;4.72;3.25;;;13.30;93.00;;;;;;5041913;28;20250;-54
2021/10/25 14:40:43;;;;;;;3.72;3.42;;;13.20;93.30;;;;;;5037997;28;20653;-52
2021/10/25 14:43:16;;;;;;;4.22;3.47;;;13.10;93.70;;;;;;5033719;28;20274;-53
2021/10/25 14:45:55;;;;;;;5.05;3.40;;;13.00;93.80;;;;;;5041401;28;20203;-50
2021/10/25 14:48:41;;;;;;;3.80;2.90;;;13.00;94.00;;;;;;5030798;28;20199;-51
2021/10/25 14:54:00;;;;;;;3.88;2.70;;;12.80;94.40;;;;;;5029785;28;20229;-49
2021/10/25 14:56:27;;;;;;;5.63;3.28;;;12.80;93.90;;;;;;5036317;28;20347;-52
2021/10/25 14:58:55;;;;;;;5.53;2.72;;;13.00;94.00;;;;;;5037241;28;20227;-47
2021/10/25 15:01:22;;;;;;;4.45;2.95;;;12.90;94.10;;;;;;5032338;28;20385;-50
2021/10/25 15:03:50;;;;;;;2.55;2.33;;;12.90;93.80;;;;;;5038558;28;20262;-51